sensor_id;sensor_type;location;lat;lon;timestamp;P1;durP1;ratioP1;P2;durP2;ratioP2
12052;SDS011;6087;48.982;12.064;2023-06-26T00:00:38;17.00;;;6.43;;
12052;SDS011;6087;48.982;12.064;2023-06-26T00:03:12;7.38;;;5.88;;
12052;SDS011;6087;48.982;12.064;2023-06-26T00:05:40;7.07;;;6.38;;
12052;SDS011;6087;48.982;12.064;2023-06-26T00:08:07;6.72;;;5.55;;
12052;SDS011;6087;48.982;12.064;2023-06-26T00:10:34;6.10;;;5.28;;
12052;SDS011;6087;48.982;12.064;2023-06-26T00:13:01;7.15;;;6.07;;
12052;SDS011;6087;48.982;12.064;2023-06-26T00:15:29;5.80;;;5.18;;
12052;SDS011;6087;48.982;12.064;2023-06-26T00:17:56;5.47;;;4.97;;
12052;SDS011;6087;48.982;12.064;2023-06-26T00:20:23;6.45;;;5.85;;
12052;SDS011;6087;48.982;12.064;2023-06-26T00:22:51;6.18;;;5.57;;
12052;SDS011;6087;48.982;12.064;2023-06-26T00:25:18;6.15;;;5.35;;
12052;SDS011;6087;48.982;12.064;2023-06-26T00:27:45;7.10;;;5.63;;
12052;SDS011;6087;48.982;12.064;2023-06-26T00:30:12;5.70;;;5.20;;
12052;SDS011;6087;48.982;12.064;2023-06-26T00:32:40;6.50;;;5.82;;
12052;SDS011;6087;48.982;12.064;2023-06-26T00:35:07;6.32;;;5.60;;
12052;SDS011;6087;48.982;12.064;2023-06-26T00:37:34;6.03;;;5.38;;
12052;SDS011;6087;48.982;12.064;2023-06-26T00:40:01;5.95;;;5.22;;
12052;SDS011;6087;48.982;12.064;2023-06-26T00:42:30;7.38;;;5.55;;
12052;SDS011;6087;48.982;12.064;2023-06-26T00:44:57;10.07;;;6.18;;
12052;SDS011;6087;48.982;12.064;2023-06-26T00:47:24;6.57;;;5.93;;
12052;SDS011;6087;48.982;12.064;2023-06-26T00:49:52;6.45;;;5.85;;
12052;SDS011;6087;48.982;12.064;2023-06-26T00:52:22;8.38;;;6.43;;
12052;SDS011;6087;48.982;12.064;2023-06-26T00:54:49;8.18;;;6.40;;
12052;SDS011;6087;48.982;12.064;2023-06-26T00:57:16;7.60;;;6.78;;
12052;SDS011;6087;48.982;12.064;2023-06-26T00:59:43;7.97;;;6.10;;
12052;SDS011;6087;48.982;12.064;2023-06-26T01:02:10;7.90;;;6.30;;
12052;SDS011;6087;48.982;12.064;2023-06-26T01:04:37;8.40;;;6.68;;
12052;SDS011;6087;48.982;12.064;2023-06-26T01:07:13;7.93;;;6.05;;
12052;SDS011;6087;48.982;12.064;2023-06-26T01:09:41;6.63;;;5.68;;
12052;SDS011;6087;48.982;12.064;2023-06-26T01:12:08;6.40;;;5.75;;
12052;SDS011;6087;48.982;12.064;2023-06-26T01:14:35;6.35;;;5.75;;
12052;SDS011;6087;48.982;12.064;2023-06-26T01:17:02;6.40;;;5.57;;
12052;SDS011;6087;48.982;12.064;2023-06-26T01:19:31;6.32;;;5.72;;
12052;SDS011;6087;48.982;12.064;2023-06-26T01:22:00;6.63;;;5.93;;
12052;SDS011;6087;48.982;12.064;2023-06-26T01:24:42;6.20;;;5.60;;
12052;SDS011;6087;48.982;12.064;2023-06-26T01:27:28;7.75;;;6.57;;
12052;SDS011;6087;48.982;12.064;2023-06-26T01:29:58;7.22;;;6.53;;
12052;SDS011;6087;48.982;12.064;2023-06-26T01:32:29;8.50;;;7.32;;
12052;SDS011;6087;48.982;12.064;2023-06-26T01:34:56;7.75;;;6.95;;
12052;SDS011;6087;48.982;12.064;2023-06-26T01:37:26;6.35;;;5.75;;
12052;SDS011;6087;48.982;12.064;2023-06-26T01:39:53;8.40;;;6.88;;
12052;SDS011;6087;48.982;12.064;2023-06-26T01:42:20;7.53;;;6.22;;
12052;SDS011;6087;48.982;12.064;2023-06-26T01:44:48;7.15;;;6.28;;
12052;SDS011;6087;48.982;12.064;2023-06-26T01:47:19;8.10;;;7.25;;
12052;SDS011;6087;48.982;12.064;2023-06-26T01:49:52;7.78;;;6.93;;
12052;SDS011;6087;48.982;12.064;2023-06-26T01:52:24;7.45;;;6.65;;
12052;SDS011;6087;48.982;12.064;2023-06-26T01:54:57;7.13;;;6.05;;
12052;SDS011;6087;48.982;12.064;2023-06-26T01:57:31;8.20;;;6.82;;
12052;SDS011;6087;48.982;12.064;2023-06-26T02:00:02;8.82;;;7.15;;
12052;SDS011;6087;48.982;12.064;2023-06-26T02:02:31;7.53;;;6.70;;
12052;SDS011;6087;48.982;12.064;2023-06-26T02:04:58;6.80;;;6.10;;
12052;SDS011;6087;48.982;12.064;2023-06-26T02:07:24;7.05;;;6.35;;
12052;SDS011;6087;48.982;12.064;2023-06-26T02:09:51;8.05;;;7.20;;
12052;SDS011;6087;48.982;12.064;2023-06-26T02:12:18;7.25;;;6.10;;
12052;SDS011;6087;48.982;12.064;2023-06-26T02:14:45;7.63;;;6.53;;
12052;SDS011;6087;48.982;12.064;2023-06-26T02:17:13;6.45;;;5.68;;
12052;SDS011;6087;48.982;12.064;2023-06-26T02:19:40;7.85;;;7.05;;
12052;SDS011;6087;48.982;12.064;2023-06-26T02:22:12;6.75;;;5.97;;
12052;SDS011;6087;48.982;12.064;2023-06-26T02:24:39;7.90;;;6.25;;
12052;SDS011;6087;48.982;12.064;2023-06-26T02:27:06;10.35;;;7.00;;
12052;SDS011;6087;48.982;12.064;2023-06-26T02:29:33;7.13;;;6.43;;
12052;SDS011;6087;48.982;12.064;2023-06-26T02:32:00;7.57;;;6.75;;
12052;SDS011;6087;48.982;12.064;2023-06-26T02:34:28;6.70;;;5.95;;
12052;SDS011;6087;48.982;12.064;2023-06-26T02:36:55;7.35;;;6.50;;
12052;SDS011;6087;48.982;12.064;2023-06-26T02:39:23;6.72;;;6.13;;
12052;SDS011;6087;48.982;12.064;2023-06-26T02:41:50;7.43;;;6.57;;
12052;SDS011;6087;48.982;12.064;2023-06-26T02:44:17;7.75;;;6.38;;
12052;SDS011;6087;48.982;12.064;2023-06-26T02:46:44;7.10;;;6.40;;
12052;SDS011;6087;48.982;12.064;2023-06-26T02:49:11;6.85;;;6.13;;
12052;SDS011;6087;48.982;12.064;2023-06-26T02:51:39;6.78;;;6.07;;
12052;SDS011;6087;48.982;12.064;2023-06-26T02:54:06;9.48;;;6.43;;
12052;SDS011;6087;48.982;12.064;2023-06-26T02:56:38;8.07;;;6.68;;
12052;SDS011;6087;48.982;12.064;2023-06-26T02:59:05;7.43;;;6.65;;
12052;SDS011;6087;48.982;12.064;2023-06-26T03:01:34;7.18;;;6.50;;
12052;SDS011;6087;48.982;12.064;2023-06-26T03:04:01;6.40;;;5.75;;
12052;SDS011;6087;48.982;12.064;2023-06-26T03:06:29;7.55;;;6.85;;
12052;SDS011;6087;48.982;12.064;2023-06-26T03:08:57;7.30;;;6.55;;
12052;SDS011;6087;48.982;12.064;2023-06-26T03:11:24;7.55;;;6.85;;
12052;SDS011;6087;48.982;12.064;2023-06-26T03:13:51;8.82;;;6.85;;
12052;SDS011;6087;48.982;12.064;2023-06-26T03:16:18;8.27;;;6.68;;
12052;SDS011;6087;48.982;12.064;2023-06-26T03:18:44;8.05;;;6.90;;
12052;SDS011;6087;48.982;12.064;2023-06-26T03:21:11;8.02;;;7.28;;
12052;SDS011;6087;48.982;12.064;2023-06-26T03:23:38;7.70;;;6.13;;
12052;SDS011;6087;48.982;12.064;2023-06-26T03:26:07;10.32;;;6.88;;
12052;SDS011;6087;48.982;12.064;2023-06-26T03:28:33;7.80;;;6.57;;
12052;SDS011;6087;48.982;12.064;2023-06-26T03:31:00;8.23;;;6.85;;
12052;SDS011;6087;48.982;12.064;2023-06-26T03:33:27;8.30;;;7.50;;
12052;SDS011;6087;48.982;12.064;2023-06-26T03:35:54;8.15;;;6.90;;
12052;SDS011;6087;48.982;12.064;2023-06-26T03:38:21;9.80;;;7.35;;
12052;SDS011;6087;48.982;12.064;2023-06-26T03:40:49;8.25;;;7.43;;
12052;SDS011;6087;48.982;12.064;2023-06-26T03:43:17;7.78;;;6.97;;
12052;SDS011;6087;48.982;12.064;2023-06-26T03:45:44;8.45;;;7.47;;
12052;SDS011;6087;48.982;12.064;2023-06-26T03:48:11;8.68;;;7.50;;
12052;SDS011;6087;48.982;12.064;2023-06-26T03:50:39;7.95;;;7.05;;
12052;SDS011;6087;48.982;12.064;2023-06-26T03:53:05;8.05;;;6.40;;
12052;SDS011;6087;48.982;12.064;2023-06-26T03:55:35;8.90;;;6.70;;
12052;SDS011;6087;48.982;12.064;2023-06-26T03:58:03;9.20;;;6.45;;
12052;SDS011;6087;48.982;12.064;2023-06-26T04:00:33;8.48;;;6.35;;
12052;SDS011;6087;48.982;12.064;2023-06-26T04:03:00;7.32;;;6.45;;
12052;SDS011;6087;48.982;12.064;2023-06-26T04:05:28;8.27;;;6.78;;
12052;SDS011;6087;48.982;12.064;2023-06-26T04:07:54;9.45;;;6.72;;
12052;SDS011;6087;48.982;12.064;2023-06-26T04:10:24;7.85;;;6.43;;
12052;SDS011;6087;48.982;12.064;2023-06-26T04:12:51;7.30;;;6.60;;
12052;SDS011;6087;48.982;12.064;2023-06-26T04:15:18;7.85;;;6.85;;
12052;SDS011;6087;48.982;12.064;2023-06-26T04:17:46;7.80;;;7.00;;
12052;SDS011;6087;48.982;12.064;2023-06-26T04:20:13;7.78;;;6.97;;
12052;SDS011;6087;48.982;12.064;2023-06-26T04:22:40;8.25;;;7.20;;
12052;SDS011;6087;48.982;12.064;2023-06-26T04:25:08;8.70;;;7.05;;
12052;SDS011;6087;48.982;12.064;2023-06-26T04:27:36;7.30;;;6.60;;
12052;SDS011;6087;48.982;12.064;2023-06-26T04:30:04;8.93;;;6.72;;
12052;SDS011;6087;48.982;12.064;2023-06-26T04:32:34;8.25;;;7.45;;
12052;SDS011;6087;48.982;12.064;2023-06-26T04:35:02;8.43;;;7.53;;
12052;SDS011;6087;48.982;12.064;2023-06-26T04:37:34;8.38;;;7.50;;
12052;SDS011;6087;48.982;12.064;2023-06-26T04:40:04;8.10;;;7.32;;
12052;SDS011;6087;48.982;12.064;2023-06-26T04:42:32;8.90;;;7.65;;
12052;SDS011;6087;48.982;12.064;2023-06-26T04:44:58;7.60;;;6.68;;
12052;SDS011;6087;48.982;12.064;2023-06-26T04:47:30;8.63;;;7.55;;
12052;SDS011;6087;48.982;12.064;2023-06-26T04:49:57;8.80;;;7.88;;
12052;SDS011;6087;48.982;12.064;2023-06-26T04:52:25;9.65;;;8.65;;
12052;SDS011;6087;48.982;12.064;2023-06-26T04:54:54;8.40;;;7.50;;
12052;SDS011;6087;48.982;12.064;2023-06-26T04:57:21;8.27;;;7.47;;
12052;SDS011;6087;48.982;12.064;2023-06-26T04:59:50;8.73;;;7.55;;
12052;SDS011;6087;48.982;12.064;2023-06-26T05:02:17;11.45;;;7.85;;
12052;SDS011;6087;48.982;12.064;2023-06-26T05:04:44;8.52;;;7.70;;
12052;SDS011;6087;48.982;12.064;2023-06-26T05:07:12;10.05;;;7.60;;
12052;SDS011;6087;48.982;12.064;2023-06-26T05:09:41;8.85;;;7.95;;
12052;SDS011;6087;48.982;12.064;2023-06-26T05:12:08;10.40;;;9.23;;
12052;SDS011;6087;48.982;12.064;2023-06-26T05:14:34;9.00;;;8.10;;
12052;SDS011;6087;48.982;12.064;2023-06-26T05:17:01;10.00;;;9.00;;
12052;SDS011;6087;48.982;12.064;2023-06-26T05:19:28;9.18;;;8.23;;
12052;SDS011;6087;48.982;12.064;2023-06-26T05:21:55;10.00;;;8.15;;
12052;SDS011;6087;48.982;12.064;2023-06-26T05:24:22;8.35;;;7.55;;
12052;SDS011;6087;48.982;12.064;2023-06-26T05:26:51;8.55;;;7.50;;
12052;SDS011;6087;48.982;12.064;2023-06-26T05:29:19;8.65;;;7.75;;
12052;SDS011;6087;48.982;12.064;2023-06-26T05:31:46;8.45;;;7.53;;
12052;SDS011;6087;48.982;12.064;2023-06-26T05:34:15;9.75;;;8.38;;
12052;SDS011;6087;48.982;12.064;2023-06-26T05:36:43;8.20;;;7.40;;
12052;SDS011;6087;48.982;12.064;2023-06-26T05:39:10;7.65;;;6.90;;
12052;SDS011;6087;48.982;12.064;2023-06-26T05:41:38;8.20;;;7.40;;
12052;SDS011;6087;48.982;12.064;2023-06-26T05:44:06;9.23;;;8.10;;
12052;SDS011;6087;48.982;12.064;2023-06-26T05:46:33;9.48;;;7.75;;
12052;SDS011;6087;48.982;12.064;2023-06-26T05:49:00;9.50;;;8.50;;
12052;SDS011;6087;48.982;12.064;2023-06-26T05:51:27;8.55;;;7.65;;
12052;SDS011;6087;48.982;12.064;2023-06-26T05:53:54;8.88;;;7.70;;
12052;SDS011;6087;48.982;12.064;2023-06-26T05:56:22;7.88;;;7.07;;
12052;SDS011;6087;48.982;12.064;2023-06-26T05:58:49;8.05;;;7.10;;
12052;SDS011;6087;48.982;12.064;2023-06-26T06:01:18;10.48;;;7.75;;
12052;SDS011;6087;48.982;12.064;2023-06-26T06:03:45;10.18;;;8.27;;
12052;SDS011;6087;48.982;12.064;2023-06-26T06:06:12;9.10;;;8.10;;
12052;SDS011;6087;48.982;12.064;2023-06-26T06:08:40;10.05;;;7.80;;
12052;SDS011;6087;48.982;12.064;2023-06-26T06:11:09;8.60;;;7.80;;
12052;SDS011;6087;48.982;12.064;2023-06-26T06:13:40;8.65;;;7.72;;
12052;SDS011;6087;48.982;12.064;2023-06-26T06:16:07;10.23;;;8.02;;
12052;SDS011;6087;48.982;12.064;2023-06-26T06:18:36;8.18;;;7.28;;
12052;SDS011;6087;48.982;12.064;2023-06-26T06:21:02;8.95;;;7.30;;
12052;SDS011;6087;48.982;12.064;2023-06-26T06:23:29;10.43;;;7.72;;
12052;SDS011;6087;48.982;12.064;2023-06-26T06:25:56;8.15;;;7.38;;
12052;SDS011;6087;48.982;12.064;2023-06-26T06:28:23;8.90;;;8.00;;
12052;SDS011;6087;48.982;12.064;2023-06-26T06:30:53;9.27;;;7.38;;
12052;SDS011;6087;48.982;12.064;2023-06-26T06:33:20;8.82;;;7.32;;
12052;SDS011;6087;48.982;12.064;2023-06-26T06:35:48;7.85;;;7.05;;
12052;SDS011;6087;48.982;12.064;2023-06-26T06:38:15;8.02;;;7.22;;
12052;SDS011;6087;48.982;12.064;2023-06-26T06:40:42;8.20;;;6.80;;
12052;SDS011;6087;48.982;12.064;2023-06-26T06:43:09;8.30;;;6.97;;
12052;SDS011;6087;48.982;12.064;2023-06-26T06:45:36;8.90;;;7.35;;
12052;SDS011;6087;48.982;12.064;2023-06-26T06:48:03;7.70;;;7.00;;
12052;SDS011;6087;48.982;12.064;2023-06-26T06:50:30;7.45;;;6.57;;
12052;SDS011;6087;48.982;12.064;2023-06-26T06:52:59;8.23;;;6.88;;
12052;SDS011;6087;48.982;12.064;2023-06-26T06:55:26;7.13;;;6.45;;
12052;SDS011;6087;48.982;12.064;2023-06-26T06:57:53;8.80;;;6.65;;
12052;SDS011;6087;48.982;12.064;2023-06-26T07:00:20;10.32;;;6.75;;
12052;SDS011;6087;48.982;12.064;2023-06-26T07:02:46;7.75;;;6.78;;
12052;SDS011;6087;48.982;12.064;2023-06-26T07:05:13;6.70;;;6.10;;
12052;SDS011;6087;48.982;12.064;2023-06-26T07:07:42;8.95;;;6.50;;
12052;SDS011;6087;48.982;12.064;2023-06-26T07:10:13;7.15;;;6.45;;
12052;SDS011;6087;48.982;12.064;2023-06-26T07:12:40;7.18;;;6.45;;
12052;SDS011;6087;48.982;12.064;2023-06-26T07:15:09;7.35;;;6.53;;
12052;SDS011;6087;48.982;12.064;2023-06-26T07:17:36;8.25;;;6.43;;
12052;SDS011;6087;48.982;12.064;2023-06-26T07:20:04;8.52;;;6.75;;
12052;SDS011;6087;48.982;12.064;2023-06-26T07:22:33;6.68;;;5.90;;
12052;SDS011;6087;48.982;12.064;2023-06-26T07:25:00;6.95;;;6.10;;
12052;SDS011;6087;48.982;12.064;2023-06-26T07:27:30;8.15;;;6.78;;
12052;SDS011;6087;48.982;12.064;2023-06-26T07:29:58;7.95;;;6.47;;
12052;SDS011;6087;48.982;12.064;2023-06-26T07:32:25;6.72;;;6.07;;
12052;SDS011;6087;48.982;12.064;2023-06-26T07:34:52;7.05;;;5.90;;
12052;SDS011;6087;48.982;12.064;2023-06-26T07:37:19;6.45;;;5.88;;
12052;SDS011;6087;48.982;12.064;2023-06-26T07:39:46;6.55;;;5.38;;
12052;SDS011;6087;48.982;12.064;2023-06-26T07:42:13;6.53;;;5.93;;
12052;SDS011;6087;48.982;12.064;2023-06-26T07:44:42;6.35;;;5.55;;
12052;SDS011;6087;48.982;12.064;2023-06-26T07:47:09;6.18;;;5.57;;
12052;SDS011;6087;48.982;12.064;2023-06-26T07:49:37;7.75;;;6.22;;
12052;SDS011;6087;48.982;12.064;2023-06-26T07:52:05;8.15;;;6.95;;
12052;SDS011;6087;48.982;12.064;2023-06-26T07:54:35;6.57;;;5.95;;
12052;SDS011;6087;48.982;12.064;2023-06-26T07:57:02;6.47;;;5.88;;
12052;SDS011;6087;48.982;12.064;2023-06-26T07:59:32;9.65;;;6.25;;
12052;SDS011;6087;48.982;12.064;2023-06-26T08:02:00;5.95;;;5.05;;
12052;SDS011;6087;48.982;12.064;2023-06-26T08:04:28;6.35;;;5.75;;
12052;SDS011;6087;48.982;12.064;2023-06-26T08:06:57;7.03;;;6.32;;
12052;SDS011;6087;48.982;12.064;2023-06-26T08:09:25;6.22;;;5.45;;
12052;SDS011;6087;48.982;12.064;2023-06-26T08:11:53;7.25;;;5.50;;
12052;SDS011;6087;48.982;12.064;2023-06-26T08:14:21;7.25;;;6.00;;
12052;SDS011;6087;48.982;12.064;2023-06-26T08:16:48;6.88;;;5.82;;
12052;SDS011;6087;48.982;12.064;2023-06-26T08:19:16;7.13;;;5.40;;
12052;SDS011;6087;48.982;12.064;2023-06-26T08:21:44;8.02;;;6.10;;
12052;SDS011;6087;48.982;12.064;2023-06-26T08:24:12;6.45;;;5.80;;
12052;SDS011;6087;48.982;12.064;2023-06-26T08:26:41;5.85;;;5.28;;
12052;SDS011;6087;48.982;12.064;2023-06-26T08:29:11;6.80;;;6.05;;
12052;SDS011;6087;48.982;12.064;2023-06-26T08:31:38;6.45;;;5.85;;
12052;SDS011;6087;48.982;12.064;2023-06-26T08:34:08;7.10;;;6.10;;
12052;SDS011;6087;48.982;12.064;2023-06-26T08:36:37;7.57;;;6.22;;
12052;SDS011;6087;48.982;12.064;2023-06-26T08:39:04;7.30;;;5.85;;
12052;SDS011;6087;48.982;12.064;2023-06-26T08:41:34;6.85;;;5.88;;
12052;SDS011;6087;48.982;12.064;2023-06-26T08:44:01;5.93;;;5.43;;
12052;SDS011;6087;48.982;12.064;2023-06-26T08:46:29;6.28;;;5.30;;
12052;SDS011;6087;48.982;12.064;2023-06-26T08:49:00;7.88;;;6.05;;
12052;SDS011;6087;48.982;12.064;2023-06-26T08:51:30;6.47;;;5.88;;
12052;SDS011;6087;48.982;12.064;2023-06-26T08:54:01;6.40;;;5.78;;
12052;SDS011;6087;48.982;12.064;2023-06-26T08:56:33;9.32;;;5.80;;
12052;SDS011;6087;48.982;12.064;2023-06-26T08:59:02;7.32;;;5.60;;
12052;SDS011;6087;48.982;12.064;2023-06-26T09:01:31;6.07;;;5.57;;
12052;SDS011;6087;48.982;12.064;2023-06-26T09:04:01;7.20;;;5.63;;
12052;SDS011;6087;48.982;12.064;2023-06-26T09:06:34;5.45;;;4.88;;
12052;SDS011;6087;48.982;12.064;2023-06-26T09:09:02;7.47;;;6.40;;
12052;SDS011;6087;48.982;12.064;2023-06-26T09:11:30;5.55;;;5.05;;
12052;SDS011;6087;48.982;12.064;2023-06-26T09:14:00;7.07;;;6.18;;
12052;SDS011;6087;48.982;12.064;2023-06-26T09:16:30;5.75;;;5.25;;
12052;SDS011;6087;48.982;12.064;2023-06-26T09:18:56;6.90;;;6.25;;
12052;SDS011;6087;48.982;12.064;2023-06-26T09:21:23;6.75;;;5.60;;
12052;SDS011;6087;48.982;12.064;2023-06-26T09:23:51;6.78;;;5.63;;
12052;SDS011;6087;48.982;12.064;2023-06-26T09:26:20;6.55;;;5.45;;
12052;SDS011;6087;48.982;12.064;2023-06-26T09:28:48;8.95;;;5.55;;
12052;SDS011;6087;48.982;12.064;2023-06-26T09:31:16;5.95;;;5.35;;
12052;SDS011;6087;48.982;12.064;2023-06-26T09:33:46;6.93;;;6.32;;
12052;SDS011;6087;48.982;12.064;2023-06-26T09:36:18;6.47;;;5.63;;
12052;SDS011;6087;48.982;12.064;2023-06-26T09:38:46;6.25;;;5.47;;
12052;SDS011;6087;48.982;12.064;2023-06-26T09:41:15;6.90;;;6.05;;
12052;SDS011;6087;48.982;12.064;2023-06-26T09:43:47;7.32;;;5.82;;
12052;SDS011;6087;48.982;12.064;2023-06-26T09:46:15;6.47;;;5.40;;
12052;SDS011;6087;48.982;12.064;2023-06-26T09:48:42;5.93;;;5.30;;
12052;SDS011;6087;48.982;12.064;2023-06-26T09:51:09;6.57;;;5.90;;
12052;SDS011;6087;48.982;12.064;2023-06-26T09:53:36;5.85;;;5.35;;
12052;SDS011;6087;48.982;12.064;2023-06-26T09:56:06;6.45;;;5.30;;
12052;SDS011;6087;48.982;12.064;2023-06-26T09:58:33;12.23;;;6.28;;
12052;SDS011;6087;48.982;12.064;2023-06-26T10:01:04;6.28;;;5.18;;
12052;SDS011;6087;48.982;12.064;2023-06-26T10:03:32;6.78;;;5.32;;
12052;SDS011;6087;48.982;12.064;2023-06-26T10:06:02;6.03;;;5.43;;
12052;SDS011;6087;48.982;12.064;2023-06-26T10:08:30;6.13;;;5.53;;
12052;SDS011;6087;48.982;12.064;2023-06-26T10:11:02;6.30;;;5.70;;
12052;SDS011;6087;48.982;12.064;2023-06-26T10:13:30;7.90;;;6.35;;
12052;SDS011;6087;48.982;12.064;2023-06-26T10:16:01;6.80;;;5.88;;
12052;SDS011;6087;48.982;12.064;2023-06-26T10:18:29;6.35;;;5.75;;
12052;SDS011;6087;48.982;12.064;2023-06-26T10:20:59;6.47;;;5.88;;
12052;SDS011;6087;48.982;12.064;2023-06-26T10:23:28;6.13;;;5.53;;
12052;SDS011;6087;48.982;12.064;2023-06-26T10:25:58;6.22;;;5.50;;
12052;SDS011;6087;48.982;12.064;2023-06-26T10:28:26;5.65;;;4.85;;
12052;SDS011;6087;48.982;12.064;2023-06-26T10:30:55;6.57;;;5.88;;
12052;SDS011;6087;48.982;12.064;2023-06-26T10:33:28;5.93;;;5.38;;
12052;SDS011;6087;48.982;12.064;2023-06-26T10:36:12;6.38;;;5.80;;
12052;SDS011;6087;48.982;12.064;2023-06-26T10:38:49;6.20;;;5.68;;
12052;SDS011;6087;48.982;12.064;2023-06-26T10:41:19;5.72;;;5.18;;
12052;SDS011;6087;48.982;12.064;2023-06-26T10:43:49;5.88;;;5.38;;
12052;SDS011;6087;48.982;12.064;2023-06-26T10:46:17;5.90;;;5.30;;
12052;SDS011;6087;48.982;12.064;2023-06-26T10:49:02;6.22;;;5.63;;
12052;SDS011;6087;48.982;12.064;2023-06-26T10:51:29;6.63;;;5.68;;
12052;SDS011;6087;48.982;12.064;2023-06-26T10:53:57;5.80;;;5.25;;
12052;SDS011;6087;48.982;12.064;2023-06-26T10:56:43;7.05;;;5.82;;
12052;SDS011;6087;48.982;12.064;2023-06-26T10:59:15;5.95;;;5.35;;
12052;SDS011;6087;48.982;12.064;2023-06-26T11:01:44;5.63;;;5.10;;
12052;SDS011;6087;48.982;12.064;2023-06-26T11:04:14;5.43;;;4.80;;
12052;SDS011;6087;48.982;12.064;2023-06-26T11:06:44;6.00;;;5.30;;
12052;SDS011;6087;48.982;12.064;2023-06-26T11:09:14;6.28;;;5.68;;
12052;SDS011;6087;48.982;12.064;2023-06-26T11:11:59;5.35;;;4.85;;
12052;SDS011;6087;48.982;12.064;2023-06-26T11:14:35;5.00;;;4.50;;
12052;SDS011;6087;48.982;12.064;2023-06-26T11:17:03;3.97;;;3.67;;
12052;SDS011;6087;48.982;12.064;2023-06-26T11:19:32;4.85;;;4.45;;
12052;SDS011;6087;48.982;12.064;2023-06-26T11:21:59;7.43;;;5.65;;
12052;SDS011;6087;48.982;12.064;2023-06-26T11:24:30;5.60;;;4.75;;
12052;SDS011;6087;48.982;12.064;2023-06-26T11:27:00;6.22;;;5.00;;
12052;SDS011;6087;48.982;12.064;2023-06-26T11:29:29;7.25;;;4.60;;
12052;SDS011;6087;48.982;12.064;2023-06-26T11:32:00;5.95;;;5.10;;
12052;SDS011;6087;48.982;12.064;2023-06-26T11:34:32;6.00;;;5.30;;
12052;SDS011;6087;48.982;12.064;2023-06-26T11:37:00;5.72;;;4.68;;
12052;SDS011;6087;48.982;12.064;2023-06-26T11:39:27;5.22;;;4.75;;
12052;SDS011;6087;48.982;12.064;2023-06-26T11:41:54;5.40;;;4.95;;
12052;SDS011;6087;48.982;12.064;2023-06-26T11:44:22;6.18;;;5.28;;
12052;SDS011;6087;48.982;12.064;2023-06-26T11:46:51;6.57;;;5.97;;
12052;SDS011;6087;48.982;12.064;2023-06-26T11:49:20;5.70;;;5.18;;
12052;SDS011;6087;48.982;12.064;2023-06-26T11:51:49;6.20;;;5.60;;
12052;SDS011;6087;48.982;12.064;2023-06-26T11:54:22;6.57;;;5.80;;
12052;SDS011;6087;48.982;12.064;2023-06-26T11:56:53;6.68;;;5.30;;
12052;SDS011;6087;48.982;12.064;2023-06-26T11:59:22;7.18;;;6.47;;
12052;SDS011;6087;48.982;12.064;2023-06-26T12:01:50;7.80;;;5.45;;
12052;SDS011;6087;48.982;12.064;2023-06-26T12:04:18;5.95;;;5.25;;
12052;SDS011;6087;48.982;12.064;2023-06-26T12:06:46;7.70;;;5.47;;
12052;SDS011;6087;48.982;12.064;2023-06-26T12:09:16;5.78;;;5.28;;
12052;SDS011;6087;48.982;12.064;2023-06-26T12:11:46;5.28;;;4.70;;
12052;SDS011;6087;48.982;12.064;2023-06-26T12:14:14;5.85;;;5.28;;
12052;SDS011;6087;48.982;12.064;2023-06-26T12:16:43;6.85;;;6.25;;
12052;SDS011;6087;48.982;12.064;2023-06-26T12:19:10;6.35;;;5.60;;
12052;SDS011;6087;48.982;12.064;2023-06-26T12:21:44;6.05;;;5.45;;
12052;SDS011;6087;48.982;12.064;2023-06-26T12:24:22;6.93;;;5.35;;
12052;SDS011;6087;48.982;12.064;2023-06-26T12:26:53;5.60;;;5.10;;
12052;SDS011;6087;48.982;12.064;2023-06-26T12:29:28;5.43;;;4.93;;
12052;SDS011;6087;48.982;12.064;2023-06-26T12:31:57;5.97;;;5.20;;
12052;SDS011;6087;48.982;12.064;2023-06-26T12:34:26;6.00;;;4.60;;
12052;SDS011;6087;48.982;12.064;2023-06-26T12:36:58;5.00;;;4.55;;
12052;SDS011;6087;48.982;12.064;2023-06-26T12:39:44;5.15;;;4.43;;
12052;SDS011;6087;48.982;12.064;2023-06-26T12:42:13;4.30;;;4.00;;
12052;SDS011;6087;48.982;12.064;2023-06-26T12:44:40;5.28;;;4.68;;
12052;SDS011;6087;48.982;12.064;2023-06-26T12:47:07;4.32;;;3.92;;
12052;SDS011;6087;48.982;12.064;2023-06-26T12:49:35;5.20;;;4.22;;
12052;SDS011;6087;48.982;12.064;2023-06-26T12:52:04;4.85;;;4.40;;
12052;SDS011;6087;48.982;12.064;2023-06-26T12:54:36;4.75;;;4.10;;
12052;SDS011;6087;48.982;12.064;2023-06-26T12:57:04;4.57;;;4.18;;
12052;SDS011;6087;48.982;12.064;2023-06-26T12:59:32;5.05;;;4.07;;
12052;SDS011;6087;48.982;12.064;2023-06-26T13:01:59;4.15;;;3.75;;
12052;SDS011;6087;48.982;12.064;2023-06-26T13:04:27;6.47;;;4.47;;
12052;SDS011;6087;48.982;12.064;2023-06-26T13:06:54;6.05;;;4.53;;
12052;SDS011;6087;48.982;12.064;2023-06-26T13:09:21;4.43;;;4.03;;
12052;SDS011;6087;48.982;12.064;2023-06-26T13:11:50;4.65;;;4.20;;
12052;SDS011;6087;48.982;12.064;2023-06-26T13:14:17;5.38;;;4.88;;
12052;SDS011;6087;48.982;12.064;2023-06-26T13:16:44;5.10;;;4.47;;
12052;SDS011;6087;48.982;12.064;2023-06-26T13:19:11;5.07;;;4.68;;
12052;SDS011;6087;48.982;12.064;2023-06-26T13:21:38;9.10;;;5.20;;
12052;SDS011;6087;48.982;12.064;2023-06-26T13:24:11;5.25;;;4.82;;
12052;SDS011;6087;48.982;12.064;2023-06-26T13:26:41;5.50;;;4.20;;
12052;SDS011;6087;48.982;12.064;2023-06-26T13:29:09;5.22;;;4.78;;
12052;SDS011;6087;48.982;12.064;2023-06-26T13:31:36;5.30;;;4.80;;
12052;SDS011;6087;48.982;12.064;2023-06-26T13:34:03;4.82;;;4.40;;
12052;SDS011;6087;48.982;12.064;2023-06-26T13:36:33;4.25;;;3.85;;
12052;SDS011;6087;48.982;12.064;2023-06-26T13:39:00;7.47;;;4.93;;
12052;SDS011;6087;48.982;12.064;2023-06-26T13:41:28;4.53;;;4.13;;
12052;SDS011;6087;48.982;12.064;2023-06-26T13:43:55;4.68;;;4.15;;
12052;SDS011;6087;48.982;12.064;2023-06-26T13:46:23;4.68;;;4.22;;
12052;SDS011;6087;48.982;12.064;2023-06-26T13:48:50;6.78;;;4.72;;
12052;SDS011;6087;48.982;12.064;2023-06-26T13:51:17;4.50;;;4.10;;
12052;SDS011;6087;48.982;12.064;2023-06-26T13:53:44;5.38;;;4.35;;
12052;SDS011;6087;48.982;12.064;2023-06-26T13:56:11;4.25;;;3.95;;
12052;SDS011;6087;48.982;12.064;2023-06-26T13:58:38;4.43;;;4.03;;
12052;SDS011;6087;48.982;12.064;2023-06-26T14:01:05;4.65;;;4.20;;
12052;SDS011;6087;48.982;12.064;2023-06-26T14:03:33;4.47;;;4.07;;
12052;SDS011;6087;48.982;12.064;2023-06-26T14:06:00;4.60;;;4.20;;
12052;SDS011;6087;48.982;12.064;2023-06-26T14:08:26;4.47;;;4.13;;
12052;SDS011;6087;48.982;12.064;2023-06-26T14:10:53;4.65;;;4.07;;
12052;SDS011;6087;48.982;12.064;2023-06-26T14:13:20;4.18;;;3.63;;
12052;SDS011;6087;48.982;12.064;2023-06-26T14:15:47;5.95;;;4.63;;
12052;SDS011;6087;48.982;12.064;2023-06-26T14:18:17;4.60;;;4.20;;
12052;SDS011;6087;48.982;12.064;2023-06-26T14:20:45;4.97;;;4.57;;
12052;SDS011;6087;48.982;12.064;2023-06-26T14:23:13;5.10;;;4.70;;
12052;SDS011;6087;48.982;12.064;2023-06-26T14:25:39;4.45;;;4.05;;
12052;SDS011;6087;48.982;12.064;2023-06-26T14:28:06;4.00;;;3.67;;
12052;SDS011;6087;48.982;12.064;2023-06-26T14:30:33;6.72;;;4.40;;
12052;SDS011;6087;48.982;12.064;2023-06-26T14:33:00;5.18;;;4.30;;
12052;SDS011;6087;48.982;12.064;2023-06-26T14:35:27;4.88;;;4.47;;
12052;SDS011;6087;48.982;12.064;2023-06-26T14:37:55;4.78;;;4.35;;
12052;SDS011;6087;48.982;12.064;2023-06-26T14:40:22;4.78;;;4.15;;
12052;SDS011;6087;48.982;12.064;2023-06-26T14:42:49;4.43;;;4.03;;
12052;SDS011;6087;48.982;12.064;2023-06-26T14:45:16;4.47;;;3.72;;
12052;SDS011;6087;48.982;12.064;2023-06-26T14:47:43;4.88;;;4.43;;
12052;SDS011;6087;48.982;12.064;2023-06-26T14:50:09;4.15;;;3.80;;
12052;SDS011;6087;48.982;12.064;2023-06-26T14:52:36;4.55;;;4.05;;
12052;SDS011;6087;48.982;12.064;2023-06-26T14:55:05;5.90;;;4.60;;